Ana Sayfa
METAR-TAF:

METAR-TAF

Havaalanları :

Ebu Simbel, Mısır

Enlem: 22-22-33N, Boylam: 31-36-42E, yükseklik: 188 m

Güncel hava durumu gözlemi

Rapor saat 09:00 UTC de 1 saat ve 7 dakika önce yapıldı.
Rüzgar doğu/kuzeydoğudan 6 kt
Sıcaklık 40°C
Nem 14%
Basınç 1007 hPa
Görüş mesafesi 10 km veya daha fazla
1500 m altında bulut yok ve kümülonimbus yok

METAR: HEBL 250900Z 07006KT CAVOK 40/07 Q1007 NOSIG

Saat: 12:07 (10:07 UTC)

Tahmin

Rapor saat 05:00 UTC de 5 saat ve 7 dakika önce yapıldı.
Ayın 25'si saat 06 UTC'den ayın 26'si saat 12 UTC'ye kadar geçerli Tahmin
Rüzgar kuzeydoğudan 7 kt
Görüş mesafesi 10 km veya daha fazla
1500 m altında bulut yok ve kümülonimbus yok

TAF: HEBL 250500Z 2506/2612 05007KT CAVOK

4.000'den fazla havaalanı için hava durumu gözlemleri ve tahminleri (METAR ve TAF raporları).

Kullanılabilir istasyonlar harita üzerinde sarı ve kırmızı noktalarla gösterilir.

İstasyonun adını görmek için fareyi noktanın üzerinde gezdirin.

Sonrasında hava gözlem ve tahminlerini görmek için tıklayın.

Haritayı değiştirmek için: yaklaştırmak için siyah artı işaretli yeşil düğmeye ve uzaklaştırmak için de eksi işaretli düğmeye hızla tıklayın; bitişik haritalar için yeşil okları kullanın.


METAR-TAF: